createdAt,value
2023-04-30T00:00:39.374Z,4.23
2023-04-30T00:03:40.992Z,4.21
2023-04-30T00:06:42.712Z,4.16
2023-04-30T00:09:44.394Z,4.11
2023-04-30T00:12:45.945Z,4.08
2023-04-30T00:15:47.498Z,4.02
2023-04-30T00:18:49.009Z,3.98
2023-04-30T00:21:50.680Z,3.93
2023-04-30T00:24:52.329Z,3.89
2023-04-30T00:27:53.936Z,3.87
2023-04-30T00:30:55.487Z,3.82
2023-04-30T00:33:57.596Z,3.80
2023-04-30T00:36:59.163Z,3.77
2023-04-30T00:40:00.692Z,3.72
2023-04-30T00:43:02.241Z,3.67
2023-04-30T00:46:05.424Z,3.63
2023-04-30T00:49:07.339Z,3.60
2023-04-30T00:52:09.052Z,3.54
2023-04-30T00:55:13.938Z,3.50
2023-04-30T00:58:15.990Z,3.46
2023-04-30T01:01:18.517Z,3.40
2023-04-30T01:04:20.529Z,3.34
2023-04-30T01:07:22.294Z,3.30
2023-04-30T01:10:32.396Z,3.25
2023-04-30T01:13:40.814Z,3.20
2023-04-30T01:17:06.705Z,3.16
2023-04-30T01:20:10.628Z,3.12
2023-04-30T01:23:30.863Z,3.10
2023-04-30T01:27:07.789Z,3.05
2023-04-30T01:30:10.516Z,3.02
2023-04-30T01:33:13.275Z,3.00
2023-04-30T01:36:49.609Z,2.98
2023-04-30T01:40:17.760Z,2.96
2023-04-30T01:43:54.673Z,2.92
2023-04-30T01:47:05.660Z,2.91
2023-04-30T01:50:38.010Z,2.86
2023-04-30T01:53:46.307Z,2.84
2023-04-30T01:57:18.259Z,2.80
2023-04-30T02:00:19.912Z,2.79
2023-04-30T02:03:21.639Z,2.77
2023-04-30T02:06:30.393Z,2.76
2023-04-30T02:09:32.369Z,2.73
2023-04-30T02:12:34.390Z,2.71
2023-04-30T02:15:35.943Z,2.68
2023-04-30T02:18:37.674Z,2.64
2023-04-30T02:21:39.225Z,2.61
2023-04-30T02:24:40.818Z,2.59
2023-04-30T02:27:42.493Z,2.56
2023-04-30T02:30:44.055Z,2.56
2023-04-30T02:33:45.766Z,2.54
2023-04-30T02:36:47.317Z,2.53
2023-04-30T02:39:49.605Z,2.52
2023-04-30T02:42:51.190Z,2.50
2023-04-30T02:45:52.768Z,2.49
2023-04-30T02:48:54.341Z,2.48
2023-04-30T02:51:55.933Z,2.46
2023-04-30T02:54:57.597Z,2.43
2023-04-30T02:57:59.176Z,2.43
2023-04-30T03:01:00.777Z,2.38
2023-04-30T03:04:03.862Z,2.36
2023-04-30T03:07:06.885Z,2.35
2023-04-30T03:10:09.384Z,2.30
2023-04-30T03:13:11.018Z,2.26
2023-04-30T03:16:12.687Z,2.22
2023-04-30T03:19:14.345Z,2.20
2023-04-30T03:22:15.881Z,2.17
2023-04-30T03:25:17.429Z,2.15
2023-04-30T03:28:19.268Z,2.13
2023-04-30T03:31:20.833Z,2.10
2023-04-30T03:34:22.512Z,2.08
2023-04-30T03:37:24.118Z,2.07
2023-04-30T03:40:25.868Z,2.05
2023-04-30T03:43:27.392Z,2.02
2023-04-30T03:46:29.037Z,1.98
2023-04-30T03:49:30.574Z,1.95
2023-04-30T03:52:33.746Z,1.92
2023-04-30T03:55:35.731Z,1.89
2023-04-30T03:58:37.367Z,1.86
2023-04-30T04:01:39.004Z,1.83
2023-04-30T04:04:40.604Z,1.81
2023-04-30T04:07:42.282Z,1.79
2023-04-30T04:10:44.046Z,1.78
2023-04-30T04:13:46.004Z,1.77
2023-04-30T04:16:47.565Z,1.75
2023-04-30T04:19:49.125Z,1.74
2023-04-30T04:22:51.022Z,1.73
2023-04-30T04:25:53.165Z,1.74
2023-04-30T04:28:54.686Z,1.77
2023-04-30T04:31:56.385Z,1.80
2023-04-30T04:34:58.044Z,1.81
2023-04-30T04:38:00.667Z,1.82
2023-04-30T04:41:02.242Z,1.86
2023-04-30T04:44:04.651Z,1.92
2023-04-30T04:47:06.253Z,1.99
2023-04-30T04:50:08.308Z,2.05
2023-04-30T04:53:09.985Z,2.10
2023-04-30T04:56:11.733Z,2.17
2023-04-30T04:59:13.557Z,2.26
2023-04-30T05:02:15.161Z,2.34
2023-04-30T05:05:16.821Z,2.43
2023-04-30T05:08:18.941Z,2.52
2023-04-30T05:11:22.286Z,2.65
2023-04-30T05:14:23.826Z,2.74
2023-04-30T05:17:25.620Z,2.86
2023-04-30T05:20:27.452Z,2.97
2023-04-30T05:23:29.035Z,3.06
2023-04-30T05:26:30.791Z,3.17
2023-04-30T05:29:32.357Z,3.26
2023-04-30T05:32:34.442Z,3.38
2023-04-30T05:35:36.324Z,3.50
2023-04-30T05:38:37.965Z,3.62
2023-04-30T05:41:39.556Z,3.73
2023-04-30T05:44:41.651Z,3.86
2023-04-30T05:47:43.336Z,4.00
2023-04-30T05:50:44.974Z,4.13
2023-04-30T05:53:46.510Z,4.28
2023-04-30T05:56:48.947Z,4.39
2023-04-30T05:59:51.265Z,4.52
2023-04-30T06:02:53.232Z,4.63
2023-04-30T06:05:54.876Z,4.76
2023-04-30T06:08:56.410Z,4.90
2023-04-30T06:11:58.023Z,5.02
2023-04-30T06:14:59.671Z,5.19
2023-04-30T06:18:01.336Z,5.44
2023-04-30T06:21:03.182Z,5.59
2023-04-30T06:24:05.339Z,5.73
2023-04-30T06:27:06.880Z,5.87
2023-04-30T06:30:09.080Z,5.99
2023-04-30T06:33:10.872Z,6.11
2023-04-30T06:36:12.458Z,6.23
2023-04-30T06:39:17.180Z,6.36
2023-04-30T06:42:18.709Z,6.44
2023-04-30T06:45:20.950Z,6.54
2023-04-30T06:48:23.048Z,6.62
2023-04-30T06:51:24.623Z,6.71
2023-04-30T06:54:27.755Z,6.76
2023-04-30T06:57:29.300Z,6.78
2023-04-30T07:00:31.028Z,6.83
2023-04-30T07:03:33.798Z,6.89
2023-04-30T07:06:35.444Z,6.94
2023-04-30T07:09:37.026Z,7.04
2023-04-30T07:12:38.635Z,7.18
2023-04-30T07:15:41.033Z,7.28
2023-04-30T07:18:43.094Z,7.36
2023-04-30T07:21:44.699Z,7.47
2023-04-30T07:24:46.310Z,7.61
2023-04-30T07:27:47.940Z,7.74
2023-04-30T07:30:49.544Z,7.90
2023-04-30T07:33:51.397Z,8.39
2023-04-30T07:36:52.944Z,8.77
2023-04-30T07:39:54.774Z,9.09
2023-04-30T07:42:56.440Z,9.20
2023-04-30T07:45:58.074Z,9.31
2023-04-30T07:48:59.662Z,9.39
2023-04-30T07:52:01.554Z,9.42
2023-04-30T07:55:03.533Z,9.41
2023-04-30T07:58:05.125Z,9.46
2023-04-30T08:01:06.770Z,9.56
2023-04-30T08:04:09.555Z,9.60
2023-04-30T08:07:11.210Z,9.60
2023-04-30T08:10:12.969Z,9.60
2023-04-30T08:13:14.588Z,9.65
2023-04-30T08:16:17.105Z,9.66
2023-04-30T08:19:19.303Z,9.65
2023-04-30T08:22:21.075Z,9.68
2023-04-30T08:25:23.339Z,9.61
2023-04-30T08:28:25.817Z,9.55
2023-04-30T08:31:27.722Z,9.52
2023-04-30T08:34:29.418Z,9.48
2023-04-30T08:37:32.514Z,9.48
2023-04-30T08:40:50.210Z,9.51
2023-04-30T08:43:54.479Z,9.58
2023-04-30T08:46:58.385Z,9.64
2023-04-30T08:50:00.497Z,9.75
2023-04-30T08:53:03.486Z,9.89
2023-04-30T08:56:05.932Z,10.09
2023-04-30T08:59:07.889Z,10.19
2023-04-30T09:02:10.723Z,10.22
2023-04-30T09:05:14.868Z,10.23
2023-04-30T09:08:20.444Z,10.28
2023-04-30T09:11:29.106Z,10.31
2023-04-30T09:14:32.511Z,10.39
2023-04-30T09:17:34.422Z,10.51
2023-04-30T09:20:36.443Z,10.66
2023-04-30T09:23:54.474Z,10.77
2023-04-30T09:26:56.154Z,10.90
2023-04-30T09:29:57.751Z,11.04
2023-04-30T09:32:59.430Z,11.15
2023-04-30T09:36:12.661Z,11.23
2023-04-30T09:39:17.441Z,11.39
2023-04-30T09:42:19.766Z,11.62
2023-04-30T09:45:21.342Z,11.70
2023-04-30T09:48:24.239Z,11.69
2023-04-30T09:51:27.049Z,11.69
2023-04-30T09:54:31.166Z,11.74
2023-04-30T09:57:36.295Z,11.83
2023-04-30T10:00:39.670Z,11.94
2023-04-30T10:03:43.052Z,11.99
2023-04-30T10:06:45.050Z,12.08
2023-04-30T10:09:58.921Z,12.12
2023-04-30T10:13:07.531Z,12.14
2023-04-30T10:16:18.834Z,12.29
2023-04-30T10:19:24.387Z,12.37
2023-04-30T10:22:26.306Z,12.37
2023-04-30T10:25:28.979Z,12.33
2023-04-30T10:28:32.420Z,12.28
2023-04-30T10:31:35.978Z,12.34
2023-04-30T10:35:00.284Z,12.44
2023-04-30T10:38:15.593Z,12.60
2023-04-30T10:41:20.236Z,12.60
2023-04-30T10:44:22.876Z,12.57
2023-04-30T10:47:30.079Z,12.51
2023-04-30T10:50:31.888Z,12.57
2023-04-30T10:53:37.100Z,12.71
2023-04-30T10:56:38.794Z,12.91
2023-04-30T11:00:04.851Z,13.11
2023-04-30T11:03:07.549Z,13.34
2023-04-30T11:06:21.782Z,13.53
2023-04-30T11:09:36.596Z,13.66
2023-04-30T11:12:41.586Z,13.73
2023-04-30T11:15:46.026Z,13.74
2023-04-30T11:18:47.841Z,13.64
2023-04-30T11:22:04.445Z,13.59
2023-04-30T11:25:09.511Z,13.57
2023-04-30T11:28:18.898Z,13.47
2023-04-30T11:31:21.178Z,13.34
2023-04-30T11:34:23.867Z,13.21
2023-04-30T11:37:34.366Z,13.19
2023-04-30T11:40:36.771Z,13.21
2023-04-30T11:43:38.302Z,13.26
2023-04-30T11:46:42.220Z,13.34
2023-04-30T11:49:43.959Z,13.46
2023-04-30T11:52:52.895Z,13.52
2023-04-30T11:55:56.124Z,13.54
2023-04-30T11:58:57.741Z,13.51
2023-04-30T12:01:59.490Z,13.41
2023-04-30T12:05:01.145Z,13.36
2023-04-30T12:08:07.925Z,13.34
2023-04-30T12:11:25.326Z,13.47
2023-04-30T12:14:27.092Z,13.59
2023-04-30T12:17:35.793Z,13.69
2023-04-30T12:20:38.196Z,13.77
2023-04-30T12:23:39.841Z,13.83
2023-04-30T12:26:42.326Z,13.85
2023-04-30T12:29:49.081Z,13.84
2023-04-30T12:32:53.258Z,13.95
2023-04-30T12:35:58.247Z,14.24
2023-04-30T12:39:05.700Z,14.46
2023-04-30T12:42:08.291Z,14.52
2023-04-30T12:45:11.148Z,14.47
2023-04-30T12:48:14.913Z,14.42
2023-04-30T12:51:20.165Z,14.45
2023-04-30T12:54:26.739Z,14.55
2023-04-30T12:57:29.053Z,14.67
2023-04-30T13:00:42.855Z,14.75
2023-04-30T13:03:44.628Z,14.83
2023-04-30T13:06:46.469Z,14.79
2023-04-30T13:09:48.135Z,14.70
2023-04-30T13:12:49.691Z,14.61
2023-04-30T13:15:51.292Z,14.52
2023-04-30T13:18:53.026Z,14.49
2023-04-30T13:21:55.751Z,14.44
2023-04-30T13:24:57.877Z,14.37
2023-04-30T13:28:00.302Z,14.20
2023-04-30T13:31:02.903Z,14.04
2023-04-30T13:34:04.675Z,13.99
2023-04-30T13:37:07.158Z,13.86
2023-04-30T13:40:09.348Z,13.70
2023-04-30T13:43:10.895Z,13.58
2023-04-30T13:46:12.576Z,13.49
2023-04-30T13:49:14.166Z,13.55
2023-04-30T13:52:15.749Z,13.62
2023-04-30T13:55:17.425Z,13.74
2023-04-30T13:58:19.543Z,13.83
2023-04-30T14:01:21.168Z,13.94
2023-04-30T14:04:22.726Z,14.11
2023-04-30T14:07:24.663Z,14.28
2023-04-30T14:10:26.260Z,14.36
2023-04-30T14:13:27.821Z,14.34
2023-04-30T14:16:30.444Z,14.29
2023-04-30T14:19:32.625Z,14.31
2023-04-30T14:22:38.300Z,14.25
2023-04-30T14:25:39.901Z,14.10
2023-04-30T14:28:41.471Z,13.98
2023-04-30T14:31:43.092Z,13.84
2023-04-30T14:34:44.856Z,13.82
2023-04-30T14:37:46.525Z,13.89
2023-04-30T14:40:48.071Z,13.87
2023-04-30T14:43:49.735Z,13.80
2023-04-30T14:46:51.757Z,13.74
2023-04-30T14:49:54.341Z,13.73
2023-04-30T14:52:57.122Z,13.72
2023-04-30T14:55:59.588Z,13.71
2023-04-30T14:59:02.049Z,13.66
2023-04-30T15:02:04.829Z,13.61
2023-04-30T15:05:08.063Z,13.60
2023-04-30T15:08:11.199Z,13.58
2023-04-30T15:11:15.191Z,13.52
2023-04-30T15:14:18.372Z,13.46
2023-04-30T15:17:20.736Z,13.50
2023-04-30T15:20:23.045Z,13.48
2023-04-30T15:23:25.494Z,13.45
2023-04-30T15:26:29.075Z,13.46
2023-04-30T15:29:30.964Z,13.56
2023-04-30T15:32:32.753Z,13.61
2023-04-30T15:35:35.206Z,13.60
2023-04-30T15:38:38.388Z,13.64
2023-04-30T15:41:40.048Z,13.65
2023-04-30T15:44:42.373Z,13.67
2023-04-30T15:47:44.183Z,13.75
2023-04-30T15:50:45.772Z,13.86
2023-04-30T15:53:47.282Z,13.95
2023-04-30T15:56:48.894Z,13.94
2023-04-30T15:59:50.758Z,13.95
2023-04-30T16:02:52.352Z,13.93
2023-04-30T16:05:54.708Z,13.92
2023-04-30T16:08:56.375Z,13.95
2023-04-30T16:11:58.908Z,13.98
2023-04-30T16:15:00.486Z,13.99
2023-04-30T16:18:02.109Z,14.04
2023-04-30T16:21:05.560Z,14.08
2023-04-30T16:24:08.811Z,14.14
2023-04-30T16:27:10.411Z,14.15
2023-04-30T16:30:12.262Z,14.12
2023-04-30T16:33:13.878Z,14.01
2023-04-30T16:36:15.528Z,13.95
2023-04-30T16:39:17.616Z,13.83
2023-04-30T16:42:19.221Z,13.79
2023-04-30T16:45:20.843Z,13.74
2023-04-30T16:48:22.378Z,13.60
2023-04-30T16:51:23.938Z,13.54
2023-04-30T16:54:25.908Z,13.47
2023-04-30T16:57:28.329Z,13.48
2023-04-30T17:00:30.966Z,13.50
2023-04-30T17:03:35.381Z,13.46
2023-04-30T17:06:38.759Z,13.32
2023-04-30T17:09:41.702Z,13.19
2023-04-30T17:12:44.788Z,13.17
2023-04-30T17:15:47.593Z,13.16
2023-04-30T17:18:50.201Z,13.14
2023-04-30T17:21:52.970Z,13.17
2023-04-30T17:24:57.249Z,13.21
2023-04-30T17:28:02.101Z,13.20
2023-04-30T17:31:07.407Z,13.20
2023-04-30T17:34:10.268Z,13.18
2023-04-30T17:37:13.532Z,13.16
2023-04-30T17:40:16.478Z,13.11
2023-04-30T17:43:19.600Z,13.08
2023-04-30T17:46:22.849Z,13.03
2023-04-30T17:49:26.081Z,12.94
2023-04-30T17:52:27.657Z,12.81
2023-04-30T17:55:29.597Z,12.68
2023-04-30T17:58:31.483Z,12.54
2023-04-30T18:01:33.763Z,12.42
2023-04-30T18:04:35.914Z,12.31
2023-04-30T18:07:38.790Z,12.20
2023-04-30T18:10:40.565Z,12.08
2023-04-30T18:13:43.544Z,11.97
2023-04-30T18:16:45.310Z,11.85
2023-04-30T18:19:48.738Z,11.74
2023-04-30T18:22:50.362Z,11.66
2023-04-30T18:25:51.906Z,11.57
2023-04-30T18:28:53.506Z,11.49
2023-04-30T18:31:57.390Z,11.41
2023-04-30T18:34:59.017Z,11.34
2023-04-30T18:38:01.781Z,11.26
2023-04-30T18:41:03.418Z,11.13
2023-04-30T18:44:05.784Z,11.02
2023-04-30T18:47:07.562Z,10.92
2023-04-30T18:50:13.534Z,10.82
2023-04-30T18:53:15.607Z,10.72
2023-04-30T18:56:17.173Z,10.94
2023-04-30T18:59:19.317Z,10.81
2023-04-30T19:02:21.992Z,10.72
2023-04-30T19:05:23.937Z,10.59
2023-04-30T19:08:26.307Z,10.47
2023-04-30T19:11:28.750Z,10.37
2023-04-30T19:14:30.595Z,10.27
2023-04-30T19:17:32.822Z,10.18
2023-04-30T19:20:35.781Z,10.12
2023-04-30T19:23:39.250Z,10.04
2023-04-30T19:26:42.674Z,9.99
2023-04-30T19:29:46.006Z,9.91
2023-04-30T19:32:47.856Z,9.82
2023-04-30T19:35:53.232Z,9.77
2023-04-30T19:38:55.815Z,9.76
2023-04-30T19:41:57.967Z,9.74
2023-04-30T19:44:59.471Z,9.73
2023-04-30T19:48:01.066Z,9.69
2023-04-30T19:51:04.780Z,9.62
2023-04-30T19:54:09.897Z,9.51
2023-04-30T19:57:11.648Z,9.40
2023-04-30T20:00:13.633Z,9.31
2023-04-30T20:03:17.226Z,9.24
2023-04-30T20:06:20.497Z,9.13
2023-04-30T20:09:22.100Z,9.06
2023-04-30T20:12:23.712Z,9.00
2023-04-30T20:15:26.032Z,8.96
2023-04-30T20:18:27.663Z,8.91
2023-04-30T20:21:29.466Z,8.87
2023-04-30T20:24:31.037Z,8.85
2023-04-30T20:27:34.205Z,8.81
2023-04-30T20:30:36.185Z,8.73
2023-04-30T20:33:37.966Z,8.68
2023-04-30T20:36:41.133Z,8.60
2023-04-30T20:39:44.354Z,8.58
2023-04-30T20:42:47.336Z,8.57
2023-04-30T20:45:48.982Z,8.53
2023-04-30T20:48:51.641Z,8.45
2023-04-30T20:51:53.465Z,8.39
2023-04-30T20:54:55.154Z,8.33
2023-04-30T20:57:58.230Z,8.25
2023-04-30T21:00:59.886Z,8.18
2023-04-30T21:04:02.299Z,8.09
2023-04-30T21:07:03.946Z,7.98
2023-04-30T21:10:06.420Z,7.93
2023-04-30T21:13:09.032Z,7.90
2023-04-30T21:16:10.562Z,7.82
2023-04-30T21:19:12.232Z,7.75
2023-04-30T21:22:13.856Z,7.66
2023-04-30T21:25:16.107Z,7.57
2023-04-30T21:28:17.648Z,7.50
2023-04-30T21:31:19.366Z,7.40
2023-04-30T21:34:20.966Z,7.53
2023-04-30T21:37:22.524Z,7.47
2023-04-30T21:40:24.127Z,7.34
2023-04-30T21:43:26.023Z,7.23
2023-04-30T21:46:27.645Z,7.12
2023-04-30T21:49:29.281Z,7.01
2023-04-30T21:52:31.193Z,6.93
2023-04-30T21:55:32.974Z,6.86
2023-04-30T21:58:35.479Z,6.83
2023-04-30T22:01:37.508Z,6.80
2023-04-30T22:04:39.020Z,6.73
2023-04-30T22:07:41.297Z,6.73
2023-04-30T22:10:43.285Z,6.67
2023-04-30T22:13:44.881Z,6.58
2023-04-30T22:16:46.464Z,6.65
2023-04-30T22:19:48.060Z,6.57
2023-04-30T22:22:49.627Z,6.66
2023-04-30T22:25:51.673Z,6.65
2023-04-30T22:28:53.246Z,6.57
2023-04-30T22:31:55.082Z,6.45
2023-04-30T22:34:56.980Z,6.34
2023-04-30T22:37:59.323Z,6.23
2023-04-30T22:41:01.137Z,6.17
2023-04-30T22:44:02.996Z,6.10
2023-04-30T22:47:04.968Z,6.05
2023-04-30T22:50:08.343Z,6.00
2023-04-30T22:53:10.375Z,5.97
2023-04-30T22:56:12.174Z,5.93
2023-04-30T22:59:13.754Z,5.91
2023-04-30T23:02:15.579Z,5.89
2023-04-30T23:05:17.368Z,5.85
2023-04-30T23:08:19.241Z,5.75
2023-04-30T23:11:21.085Z,5.71
2023-04-30T23:14:22.789Z,5.65
2023-04-30T23:17:24.374Z,5.61
2023-04-30T23:20:26.072Z,5.59
2023-04-30T23:23:28.120Z,5.57
2023-04-30T23:26:30.220Z,5.56
2023-04-30T23:29:32.233Z,5.53
2023-04-30T23:32:34.122Z,5.51
2023-04-30T23:35:35.722Z,5.46
2023-04-30T23:38:37.507Z,5.41
2023-04-30T23:41:39.065Z,5.38
2023-04-30T23:44:40.751Z,5.35
2023-04-30T23:47:42.347Z,5.31
2023-04-30T23:50:43.877Z,5.28
2023-04-30T23:53:45.759Z,5.27
2023-04-30T23:56:47.276Z,5.23
2023-04-30T23:59:48.849Z,5.20
